Dati Storici

Data ora Umidita' aria (%) Temperatura aria (°C) Rad globale (W/m²) Gonioanemometro (°) Tacoanemometro (m/s) Pioggia (mm)
22-06-2020 16:50 27.9 % 31.349 115.165 -0.05 0 0
22-06-2020 16:40 30.7 % 31.021 197.798 -0.046 0 0
22-06-2020 16:30 32.4 % 30.711 117.982 0.977 0 0
22-06-2020 16:20 32 % 30.686 108.28 1.382 0 0
22-06-2020 16:10 27.5 % 31.515 197.852 1.667 0 0
22-06-2020 16:00 32 % 31.156 102.94 1.582 0 0
22-06-2020 15:50 31.3 % 30.446 138.744 0.607 0 0
22-06-2020 15:40 30.1 % 31.207 169.268 1.748 0 0
22-06-2020 15:30 29.6 % 31.304 303.659 -0.043 0 0
22-06-2020 15:20 28.3 % 31.264 142.938 0.307 0 0
22-06-2020 15:10 31.6 % 30.601 138.58 2.34 0 0
22-06-2020 15:00 31.1 % 30.655 157.988 2.733 0 0
22-06-2020 14:50 30.2 % 30.707 111.956 0.899 0 0
22-06-2020 14:40 30.6 % 30.141 93.422 2.478 0 0
22-06-2020 14:30 30.4 % 30.552 92.01 1.984 0 0
22-06-2020 14:20 29 % 30.712 108.05 1.763 0 0
22-06-2020 14:10 28.1 % 30.849 153.316 2.164 0 0
22-06-2020 14:00 28.4 % 29.801 183.274 0.838 0 0
22-06-2020 13:50 29.5 % 30.525 175.772 1.267 0 0
22-06-2020 13:40 29 % 30.483 130.974 1.609 0 0

I dati sono presentati in modo automatico a scopo informativo. In seguito a verifica i dati possono subire modifiche o essere invalidati e non riportati negli archivi definitivi.